KRDG

Reading Regional / Carl A Spaatz Field Airport

Reading, Pennsylvania, USA
KRDG 201733Z 2018/2118 31011G21KT P6SM SCT050 FM202300 34009KT P6SM SKC FM210400 32003KT P6SM SKC FM211600 31008KT P6SM BKN150
Issued Valid From Valid To
Apr-20 @ 17:33 UTC
(an hour ago)
Apr-20 @ 18:00 UTC
(35 minutes ago)
Apr-21 @ 18:00 UTC
(in 23 hours)
Apr-20 @ 18:00 to Apr-20 @ 23:00
KRDG 201733Z 2018/2118 31011G21KT P6SM SCT050
Wind Visibility Clouds
310° at 11 knots
 Gusting to 21 knots
Greater than 6 miles
  • Scattered at 5,000' AGL
From Apr-20 @ 23:00 to Apr-21 @ 04:00
FM202300 34009KT P6SM SKC
Wind Visibility Clouds
340° at 9 knots Greater than 6 miles
  • Clear skies
From Apr-21 @ 04:00 to Apr-21 @ 16:00
FM210400 32003KT P6SM SKC
Wind Visibility Clouds
320° at 3 knots Greater than 6 miles
  • Clear skies
From Apr-21 @ 16:00 to Apr-21 @ 18:00
FM211600 31008KT P6SM BKN150
Wind Visibility Clouds
310° at 8 knots Greater than 6 miles
  • Broken at 15,000' AGL
KRDG 201733Z 2018/2118 31011G21KT P6SM SCT050 FM202300 34009KT P6SM SKC FM210400 32003KT P6SM SKC FM211600 31008KT P6SM BKN150
Issued Apr-20 @ 17:33 UTC
(an hour ago)
Valid From Apr-20 @ 18:00 UTC
(35 minutes ago)
Valid To Apr-21 @ 18:00 UTC
(in 23 hours)
Apr-20 @ 18:00 - Apr-20 @ 23:00
Wind Visibility
310° at 11 knots
 Gusting to 21 knots
Greater than 6 miles
Clouds
  • Scattered at 5,000' AGL
From Apr-20 @ 23:00 - Apr-21 @ 04:00
Wind Visibility
340° at 9 knots Greater than 6 miles
Clouds
  • Clear skies
From Apr-21 @ 04:00 - Apr-21 @ 16:00
Wind Visibility
320° at 3 knots Greater than 6 miles
Clouds
  • Clear skies
From Apr-21 @ 16:00 - Apr-21 @ 18:00
Wind Visibility
310° at 8 knots Greater than 6 miles
Clouds
  • Broken at 15,000' AGL